sensor_id;sensor_type;location;lat;lon;timestamp;P1;durP1;ratioP1;P2;durP2;ratioP2
34571;SDS011;20808;48.974;8.452;2022-08-19T00:00:50;16.87;;;15.00;;
34571;SDS011;20808;48.974;8.452;2022-08-19T00:03:17;17.70;;;15.90;;
34571;SDS011;20808;48.974;8.452;2022-08-19T00:05:44;16.83;;;14.70;;
34571;SDS011;20808;48.974;8.452;2022-08-19T00:08:11;16.80;;;15.03;;
34571;SDS011;20808;48.974;8.452;2022-08-19T00:10:38;16.80;;;14.63;;
34571;SDS011;20808;48.974;8.452;2022-08-19T00:13:06;18.70;;;15.30;;
34571;SDS011;20808;48.974;8.452;2022-08-19T00:15:33;20.13;;;15.20;;
34571;SDS011;20808;48.974;8.452;2022-08-19T00:17:59;19.00;;;15.93;;
34571;SDS011;20808;48.974;8.452;2022-08-19T00:20:26;19.70;;;15.90;;
34571;SDS011;20808;48.974;8.452;2022-08-19T00:22:53;18.13;;;15.67;;
34571;SDS011;20808;48.974;8.452;2022-08-19T00:25:20;18.90;;;15.30;;
34571;SDS011;20808;48.974;8.452;2022-08-19T00:27:48;17.70;;;15.80;;
34571;SDS011;20808;48.974;8.452;2022-08-19T00:30:16;17.97;;;14.90;;
34571;SDS011;20808;48.974;8.452;2022-08-19T00:32:43;19.10;;;15.77;;
34571;SDS011;20808;48.974;8.452;2022-08-19T00:35:10;16.77;;;14.97;;
34571;SDS011;20808;48.974;8.452;2022-08-19T00:37:37;17.03;;;15.10;;
34571;SDS011;20808;48.974;8.452;2022-08-19T00:40:08;17.20;;;14.60;;
34571;SDS011;20808;48.974;8.452;2022-08-19T00:42:36;16.93;;;14.43;;
34571;SDS011;20808;48.974;8.452;2022-08-19T00:45:03;16.70;;;13.87;;
34571;SDS011;20808;48.974;8.452;2022-08-19T00:47:37;17.53;;;15.50;;
34571;SDS011;20808;48.974;8.452;2022-08-19T00:50:05;16.70;;;14.90;;
34571;SDS011;20808;48.974;8.452;2022-08-19T00:52:38;16.87;;;14.70;;
34571;SDS011;20808;48.974;8.452;2022-08-19T00:55:10;15.93;;;14.17;;
34571;SDS011;20808;48.974;8.452;2022-08-19T00:57:42;16.10;;;14.40;;
34571;SDS011;20808;48.974;8.452;2022-08-19T01:00:14;18.13;;;15.90;;
34571;SDS011;20808;48.974;8.452;2022-08-19T01:02:46;18.03;;;15.93;;
34571;SDS011;20808;48.974;8.452;2022-08-19T01:05:14;18.67;;;15.47;;
34571;SDS011;20808;48.974;8.452;2022-08-19T01:07:45;21.37;;;17.07;;
34571;SDS011;20808;48.974;8.452;2022-08-19T01:10:15;19.53;;;16.10;;
34571;SDS011;20808;48.974;8.452;2022-08-19T01:12:44;19.23;;;15.97;;
34571;SDS011;20808;48.974;8.452;2022-08-19T01:15:12;17.13;;;15.37;;
34571;SDS011;20808;48.974;8.452;2022-08-19T01:17:41;20.50;;;15.57;;
34571;SDS011;20808;48.974;8.452;2022-08-19T01:20:11;19.03;;;16.70;;
34571;SDS011;20808;48.974;8.452;2022-08-19T01:22:43;18.93;;;16.93;;
34571;SDS011;20808;48.974;8.452;2022-08-19T01:25:12;17.43;;;15.63;;
34571;SDS011;20808;48.974;8.452;2022-08-19T01:27:41;18.67;;;16.63;;
34571;SDS011;20808;48.974;8.452;2022-08-19T01:30:09;19.03;;;17.00;;
34571;SDS011;20808;48.974;8.452;2022-08-19T01:32:38;20.60;;;17.23;;
34571;SDS011;20808;48.974;8.452;2022-08-19T01:35:05;19.93;;;17.87;;
34571;SDS011;20808;48.974;8.452;2022-08-19T01:37:42;19.17;;;17.17;;
34571;SDS011;20808;48.974;8.452;2022-08-19T01:40:13;21.70;;;17.73;;
34571;SDS011;20808;48.974;8.452;2022-08-19T01:42:40;18.73;;;16.03;;
34571;SDS011;20808;48.974;8.452;2022-08-19T01:45:07;18.63;;;16.63;;
34571;SDS011;20808;48.974;8.452;2022-08-19T01:47:35;18.90;;;16.73;;
34571;SDS011;20808;48.974;8.452;2022-08-19T01:50:03;19.23;;;17.20;;
34571;SDS011;20808;48.974;8.452;2022-08-19T01:52:31;19.80;;;17.40;;
34571;SDS011;20808;48.974;8.452;2022-08-19T01:55:02;22.50;;;18.53;;
34571;SDS011;20808;48.974;8.452;2022-08-19T01:57:31;21.53;;;19.23;;
34571;SDS011;20808;48.974;8.452;2022-08-19T01:59:58;24.77;;;19.47;;
34571;SDS011;20808;48.974;8.452;2022-08-19T02:02:25;20.23;;;18.00;;
34571;SDS011;20808;48.974;8.452;2022-08-19T02:04:52;20.63;;;18.30;;
34571;SDS011;20808;48.974;8.452;2022-08-19T02:07:19;21.60;;;18.67;;
34571;SDS011;20808;48.974;8.452;2022-08-19T02:09:46;21.33;;;18.37;;
34571;SDS011;20808;48.974;8.452;2022-08-19T02:12:15;21.00;;;17.90;;
34571;SDS011;20808;48.974;8.452;2022-08-19T02:14:42;18.97;;;16.97;;
34571;SDS011;20808;48.974;8.452;2022-08-19T02:17:09;19.77;;;17.70;;
34571;SDS011;20808;48.974;8.452;2022-08-19T02:19:35;20.93;;;18.70;;
34571;SDS011;20808;48.974;8.452;2022-08-19T02:22:02;22.20;;;18.67;;
34571;SDS011;20808;48.974;8.452;2022-08-19T02:24:29;21.17;;;18.57;;
34571;SDS011;20808;48.974;8.452;2022-08-19T02:26:56;21.30;;;19.10;;
34571;SDS011;20808;48.974;8.452;2022-08-19T02:29:25;20.93;;;18.73;;
34571;SDS011;20808;48.974;8.452;2022-08-19T02:31:51;21.40;;;18.60;;
34571;SDS011;20808;48.974;8.452;2022-08-19T02:34:18;21.10;;;18.50;;
34571;SDS011;20808;48.974;8.452;2022-08-19T02:36:45;23.33;;;19.60;;
34571;SDS011;20808;48.974;8.452;2022-08-19T02:39:12;25.80;;;20.70;;
34571;SDS011;20808;48.974;8.452;2022-08-19T02:41:38;21.07;;;18.73;;
34571;SDS011;20808;48.974;8.452;2022-08-19T02:44:05;21.23;;;18.57;;
34571;SDS011;20808;48.974;8.452;2022-08-19T02:46:34;23.30;;;18.23;;
34571;SDS011;20808;48.974;8.452;2022-08-19T02:49:02;21.20;;;19.00;;
34571;SDS011;20808;48.974;8.452;2022-08-19T02:51:32;22.73;;;18.83;;
34571;SDS011;20808;48.974;8.452;2022-08-19T02:54:01;21.17;;;18.97;;
34571;SDS011;20808;48.974;8.452;2022-08-19T02:56:28;22.60;;;19.67;;
34571;SDS011;20808;48.974;8.452;2022-08-19T02:58:56;23.53;;;19.73;;
34571;SDS011;20808;48.974;8.452;2022-08-19T03:01:24;24.53;;;20.83;;
34571;SDS011;20808;48.974;8.452;2022-08-19T03:03:54;23.80;;;20.10;;
34571;SDS011;20808;48.974;8.452;2022-08-19T03:06:21;22.50;;;20.10;;
34571;SDS011;20808;48.974;8.452;2022-08-19T03:08:48;23.10;;;19.20;;
34571;SDS011;20808;48.974;8.452;2022-08-19T03:11:16;25.60;;;20.00;;
34571;SDS011;20808;48.974;8.452;2022-08-19T03:13:45;21.13;;;18.93;;
34571;SDS011;20808;48.974;8.452;2022-08-19T03:16:14;22.30;;;19.10;;
34571;SDS011;20808;48.974;8.452;2022-08-19T03:18:41;21.37;;;19.07;;
34571;SDS011;20808;48.974;8.452;2022-08-19T03:21:09;22.33;;;18.60;;
34571;SDS011;20808;48.974;8.452;2022-08-19T03:23:42;22.73;;;19.63;;
34571;SDS011;20808;48.974;8.452;2022-08-19T03:26:09;25.13;;;21.00;;
34571;SDS011;20808;48.974;8.452;2022-08-19T03:28:36;23.47;;;21.00;;
34571;SDS011;20808;48.974;8.452;2022-08-19T03:31:04;24.30;;;20.13;;
34571;SDS011;20808;48.974;8.452;2022-08-19T03:33:34;22.83;;;20.43;;
34571;SDS011;20808;48.974;8.452;2022-08-19T03:36:03;21.20;;;19.00;;
34571;SDS011;20808;48.974;8.452;2022-08-19T03:38:36;24.50;;;20.40;;
34571;SDS011;20808;48.974;8.452;2022-08-19T03:41:06;21.93;;;19.60;;
34571;SDS011;20808;48.974;8.452;2022-08-19T03:43:35;23.63;;;20.60;;
34571;SDS011;20808;48.974;8.452;2022-08-19T03:46:03;24.03;;;19.80;;
34571;SDS011;20808;48.974;8.452;2022-08-19T03:48:32;26.17;;;19.97;;
34571;SDS011;20808;48.974;8.452;2022-08-19T03:51:00;23.37;;;20.20;;
34571;SDS011;20808;48.974;8.452;2022-08-19T03:53:28;25.60;;;21.13;;
34571;SDS011;20808;48.974;8.452;2022-08-19T03:55:57;22.97;;;20.57;;
34571;SDS011;20808;48.974;8.452;2022-08-19T03:58:25;24.33;;;21.40;;
34571;SDS011;20808;48.974;8.452;2022-08-19T04:00:53;23.67;;;21.13;;
34571;SDS011;20808;48.974;8.452;2022-08-19T04:03:21;25.30;;;21.33;;
34571;SDS011;20808;48.974;8.452;2022-08-19T04:05:48;27.67;;;21.83;;
34571;SDS011;20808;48.974;8.452;2022-08-19T04:08:15;26.03;;;21.53;;
34571;SDS011;20808;48.974;8.452;2022-08-19T04:10:44;25.20;;;22.50;;
34571;SDS011;20808;48.974;8.452;2022-08-19T04:13:12;26.60;;;22.27;;
34571;SDS011;20808;48.974;8.452;2022-08-19T04:15:40;26.80;;;23.27;;
34571;SDS011;20808;48.974;8.452;2022-08-19T04:18:07;26.57;;;23.13;;
34571;SDS011;20808;48.974;8.452;2022-08-19T04:20:39;25.83;;;23.03;;
34571;SDS011;20808;48.974;8.452;2022-08-19T04:23:06;28.40;;;23.83;;
34571;SDS011;20808;48.974;8.452;2022-08-19T04:25:35;30.53;;;22.77;;
34571;SDS011;20808;48.974;8.452;2022-08-19T04:28:03;26.13;;;23.03;;
34571;SDS011;20808;48.974;8.452;2022-08-19T04:30:36;25.13;;;22.47;;
34571;SDS011;20808;48.974;8.452;2022-08-19T04:33:04;27.40;;;23.70;;
34571;SDS011;20808;48.974;8.452;2022-08-19T04:35:34;26.13;;;23.30;;
34571;SDS011;20808;48.974;8.452;2022-08-19T04:38:03;29.80;;;25.37;;
34571;SDS011;20808;48.974;8.452;2022-08-19T04:40:30;37.73;;;27.50;;
34571;SDS011;20808;48.974;8.452;2022-08-19T04:43:14;32.10;;;26.63;;
34571;SDS011;20808;48.974;8.452;2022-08-19T04:45:43;33.97;;;26.50;;
34571;SDS011;20808;48.974;8.452;2022-08-19T04:48:10;33.87;;;27.20;;
34571;SDS011;20808;48.974;8.452;2022-08-19T04:50:39;30.03;;;26.13;;
34571;SDS011;20808;48.974;8.452;2022-08-19T04:53:07;31.50;;;26.57;;
34571;SDS011;20808;48.974;8.452;2022-08-19T04:55:38;30.50;;;25.70;;
34571;SDS011;20808;48.974;8.452;2022-08-19T04:58:06;31.93;;;27.63;;
34571;SDS011;20808;48.974;8.452;2022-08-19T05:00:33;38.77;;;27.70;;
34571;SDS011;20808;48.974;8.452;2022-08-19T05:03:01;33.87;;;27.00;;
34571;SDS011;20808;48.974;8.452;2022-08-19T05:05:28;29.23;;;24.43;;
34571;SDS011;20808;48.974;8.452;2022-08-19T05:07:56;31.53;;;26.20;;
34571;SDS011;20808;48.974;8.452;2022-08-19T05:10:23;33.10;;;26.43;;
34571;SDS011;20808;48.974;8.452;2022-08-19T05:12:50;31.17;;;26.27;;
34571;SDS011;20808;48.974;8.452;2022-08-19T05:15:17;29.63;;;25.00;;
34571;SDS011;20808;48.974;8.452;2022-08-19T05:17:44;29.50;;;24.50;;
34571;SDS011;20808;48.974;8.452;2022-08-19T05:20:32;32.53;;;25.73;;
34571;SDS011;20808;48.974;8.452;2022-08-19T05:23:17;32.97;;;25.30;;
34571;SDS011;20808;48.974;8.452;2022-08-19T05:25:44;30.80;;;24.73;;
34571;SDS011;20808;48.974;8.452;2022-08-19T05:28:10;30.80;;;25.50;;
34571;SDS011;20808;48.974;8.452;2022-08-19T05:30:37;28.60;;;24.63;;
34571;SDS011;20808;48.974;8.452;2022-08-19T05:33:05;31.77;;;24.17;;
34571;SDS011;20808;48.974;8.452;2022-08-19T05:35:36;28.50;;;23.20;;
34571;SDS011;20808;48.974;8.452;2022-08-19T05:38:04;27.50;;;23.13;;
34571;SDS011;20808;48.974;8.452;2022-08-19T05:40:33;27.93;;;23.40;;
34571;SDS011;20808;48.974;8.452;2022-08-19T05:43:01;29.83;;;24.07;;
34571;SDS011;20808;48.974;8.452;2022-08-19T05:45:28;29.30;;;24.03;;
34571;SDS011;20808;48.974;8.452;2022-08-19T05:47:55;35.53;;;25.37;;
34571;SDS011;20808;48.974;8.452;2022-08-19T05:50:22;29.03;;;24.10;;
34571;SDS011;20808;48.974;8.452;2022-08-19T05:52:51;29.27;;;25.47;;
34571;SDS011;20808;48.974;8.452;2022-08-19T05:55:18;28.63;;;23.23;;
34571;SDS011;20808;48.974;8.452;2022-08-19T05:57:47;28.70;;;24.40;;
34571;SDS011;20808;48.974;8.452;2022-08-19T06:00:14;28.87;;;23.13;;
34571;SDS011;20808;48.974;8.452;2022-08-19T06:02:41;29.40;;;24.30;;
34571;SDS011;20808;48.974;8.452;2022-08-19T06:05:08;30.43;;;24.00;;
34571;SDS011;20808;48.974;8.452;2022-08-19T06:07:36;30.63;;;24.47;;
34571;SDS011;20808;48.974;8.452;2022-08-19T06:10:06;26.93;;;21.63;;
34571;SDS011;20808;48.974;8.452;2022-08-19T06:12:35;27.63;;;23.10;;
34571;SDS011;20808;48.974;8.452;2022-08-19T06:15:03;27.80;;;22.43;;
34571;SDS011;20808;48.974;8.452;2022-08-19T06:17:32;28.13;;;24.97;;
34571;SDS011;20808;48.974;8.452;2022-08-19T06:20:00;34.93;;;24.80;;
34571;SDS011;20808;48.974;8.452;2022-08-19T06:22:27;31.70;;;24.73;;
34571;SDS011;20808;48.974;8.452;2022-08-19T06:24:54;29.13;;;23.57;;
34571;SDS011;20808;48.974;8.452;2022-08-19T06:27:23;28.40;;;23.63;;
34571;SDS011;20808;48.974;8.452;2022-08-19T06:29:50;24.80;;;21.10;;
34571;SDS011;20808;48.974;8.452;2022-08-19T06:32:17;28.40;;;22.77;;
34571;SDS011;20808;48.974;8.452;2022-08-19T06:34:44;29.47;;;22.70;;
34571;SDS011;20808;48.974;8.452;2022-08-19T06:37:12;28.83;;;22.23;;
34571;SDS011;20808;48.974;8.452;2022-08-19T06:39:40;26.87;;;21.37;;
34571;SDS011;20808;48.974;8.452;2022-08-19T06:42:08;29.17;;;21.97;;
34571;SDS011;20808;48.974;8.452;2022-08-19T06:44:40;25.30;;;21.00;;
34571;SDS011;20808;48.974;8.452;2022-08-19T06:47:08;26.20;;;23.40;;
34571;SDS011;20808;48.974;8.452;2022-08-19T06:49:36;27.03;;;22.30;;
34571;SDS011;20808;48.974;8.452;2022-08-19T06:52:04;27.73;;;20.80;;
34571;SDS011;20808;48.974;8.452;2022-08-19T06:54:31;24.63;;;20.87;;
34571;SDS011;20808;48.974;8.452;2022-08-19T06:56:59;23.77;;;20.47;;
34571;SDS011;20808;48.974;8.452;2022-08-19T06:59:27;26.70;;;19.47;;
34571;SDS011;20808;48.974;8.452;2022-08-19T07:01:58;24.97;;;20.50;;
34571;SDS011;20808;48.974;8.452;2022-08-19T07:04:28;22.77;;;19.20;;
34571;SDS011;20808;48.974;8.452;2022-08-19T07:06:57;21.53;;;19.27;;
34571;SDS011;20808;48.974;8.452;2022-08-19T07:09:26;23.23;;;20.40;;
34571;SDS011;20808;48.974;8.452;2022-08-19T07:11:54;22.13;;;19.23;;
34571;SDS011;20808;48.974;8.452;2022-08-19T07:14:23;21.80;;;19.20;;
34571;SDS011;20808;48.974;8.452;2022-08-19T07:16:51;21.23;;;18.60;;
34571;SDS011;20808;48.974;8.452;2022-08-19T07:19:21;20.03;;;17.53;;
34571;SDS011;20808;48.974;8.452;2022-08-19T07:21:51;18.80;;;16.90;;
34571;SDS011;20808;48.974;8.452;2022-08-19T07:24:18;20.67;;;17.23;;
34571;SDS011;20808;48.974;8.452;2022-08-19T07:26:46;17.73;;;15.90;;
34571;SDS011;20808;48.974;8.452;2022-08-19T07:29:13;23.50;;;17.90;;
34571;SDS011;20808;48.974;8.452;2022-08-19T07:31:41;19.43;;;17.40;;
34571;SDS011;20808;48.974;8.452;2022-08-19T07:34:09;20.20;;;18.10;;
34571;SDS011;20808;48.974;8.452;2022-08-19T07:36:41;19.20;;;16.30;;
34571;SDS011;20808;48.974;8.452;2022-08-19T07:39:14;19.17;;;17.03;;
34571;SDS011;20808;48.974;8.452;2022-08-19T07:41:43;20.00;;;17.00;;
34571;SDS011;20808;48.974;8.452;2022-08-19T07:44:11;18.77;;;16.70;;
34571;SDS011;20808;48.974;8.452;2022-08-19T07:46:41;18.10;;;16.23;;
34571;SDS011;20808;48.974;8.452;2022-08-19T07:49:09;22.40;;;15.50;;
34571;SDS011;20808;48.974;8.452;2022-08-19T07:51:45;17.33;;;15.37;;
34571;SDS011;20808;48.974;8.452;2022-08-19T07:54:13;18.37;;;16.10;;
34571;SDS011;20808;48.974;8.452;2022-08-19T07:56:40;17.20;;;15.37;;
34571;SDS011;20808;48.974;8.452;2022-08-19T07:59:07;17.20;;;15.10;;
34571;SDS011;20808;48.974;8.452;2022-08-19T08:01:35;17.73;;;15.80;;
34571;SDS011;20808;48.974;8.452;2022-08-19T08:04:02;18.07;;;15.83;;
34571;SDS011;20808;48.974;8.452;2022-08-19T08:06:48;19.53;;;15.50;;
34571;SDS011;20808;48.974;8.452;2022-08-19T08:09:33;16.87;;;15.00;;
34571;SDS011;20808;48.974;8.452;2022-08-19T08:12:03;17.10;;;15.00;;
34571;SDS011;20808;48.974;8.452;2022-08-19T08:14:34;16.23;;;14.40;;
34571;SDS011;20808;48.974;8.452;2022-08-19T08:17:04;20.70;;;14.17;;
34571;SDS011;20808;48.974;8.452;2022-08-19T08:19:32;17.63;;;14.00;;
34571;SDS011;20808;48.974;8.452;2022-08-19T08:22:00;15.43;;;13.50;;
34571;SDS011;20808;48.974;8.452;2022-08-19T08:24:28;15.13;;;13.00;;
34571;SDS011;20808;48.974;8.452;2022-08-19T08:26:57;16.00;;;13.60;;
34571;SDS011;20808;48.974;8.452;2022-08-19T08:29:25;14.27;;;12.83;;
34571;SDS011;20808;48.974;8.452;2022-08-19T08:31:52;13.97;;;12.57;;
34571;SDS011;20808;48.974;8.452;2022-08-19T08:34:19;13.17;;;11.77;;
34571;SDS011;20808;48.974;8.452;2022-08-19T08:36:47;13.57;;;12.13;;
34571;SDS011;20808;48.974;8.452;2022-08-19T08:39:17;12.73;;;11.40;;
34571;SDS011;20808;48.974;8.452;2022-08-19T08:41:49;12.17;;;10.90;;
34571;SDS011;20808;48.974;8.452;2022-08-19T08:44:20;11.63;;;10.37;;
34571;SDS011;20808;48.974;8.452;2022-08-19T08:46:50;11.03;;;9.17;;
34571;SDS011;20808;48.974;8.452;2022-08-19T08:49:27;12.70;;;10.50;;
34571;SDS011;20808;48.974;8.452;2022-08-19T08:51:59;11.30;;;10.10;;
34571;SDS011;20808;48.974;8.452;2022-08-19T08:54:32;11.73;;;9.53;;
34571;SDS011;20808;48.974;8.452;2022-08-19T08:57:11;10.30;;;9.27;;
34571;SDS011;20808;48.974;8.452;2022-08-19T08:59:41;12.90;;;9.63;;
34571;SDS011;20808;48.974;8.452;2022-08-19T09:02:16;11.03;;;8.77;;
34571;SDS011;20808;48.974;8.452;2022-08-19T09:04:43;9.67;;;8.10;;
34571;SDS011;20808;48.974;8.452;2022-08-19T09:07:14;8.80;;;7.80;;
34571;SDS011;20808;48.974;8.452;2022-08-19T09:09:54;8.77;;;7.80;;
34571;SDS011;20808;48.974;8.452;2022-08-19T09:12:25;8.10;;;7.40;;
34571;SDS011;20808;48.974;8.452;2022-08-19T09:14:59;9.57;;;7.37;;
34571;SDS011;20808;48.974;8.452;2022-08-19T09:17:30;9.33;;;8.33;;
34571;SDS011;20808;48.974;8.452;2022-08-19T09:19:59;9.90;;;7.00;;
34571;SDS011;20808;48.974;8.452;2022-08-19T09:22:31;8.10;;;7.40;;
34571;SDS011;20808;48.974;8.452;2022-08-19T09:25:00;9.03;;;6.83;;
34571;SDS011;20808;48.974;8.452;2022-08-19T09:27:27;6.80;;;5.97;;
34571;SDS011;20808;48.974;8.452;2022-08-19T09:29:54;11.13;;;6.90;;
34571;SDS011;20808;48.974;8.452;2022-08-19T09:32:22;6.70;;;5.93;;
34571;SDS011;20808;48.974;8.452;2022-08-19T09:34:52;9.43;;;6.67;;
34571;SDS011;20808;48.974;8.452;2022-08-19T09:37:19;8.40;;;5.90;;
34571;SDS011;20808;48.974;8.452;2022-08-19T09:39:46;10.37;;;7.20;;
34571;SDS011;20808;48.974;8.452;2022-08-19T09:42:14;8.53;;;6.83;;
34571;SDS011;20808;48.974;8.452;2022-08-19T09:44:41;8.30;;;6.60;;
34571;SDS011;20808;48.974;8.452;2022-08-19T09:47:09;9.13;;;6.83;;
34571;SDS011;20808;48.974;8.452;2022-08-19T09:49:38;9.50;;;8.10;;
34571;SDS011;20808;48.974;8.452;2022-08-19T09:52:05;8.17;;;7.37;;
34571;SDS011;20808;48.974;8.452;2022-08-19T09:54:34;8.40;;;7.53;;
34571;SDS011;20808;48.974;8.452;2022-08-19T09:57:00;7.90;;;6.97;;
34571;SDS011;20808;48.974;8.452;2022-08-19T09:59:29;9.10;;;7.33;;
34571;SDS011;20808;48.974;8.452;2022-08-19T10:01:56;9.73;;;7.20;;
34571;SDS011;20808;48.974;8.452;2022-08-19T10:04:24;6.80;;;6.20;;
34571;SDS011;20808;48.974;8.452;2022-08-19T10:07:12;8.87;;;6.20;;
34571;SDS011;20808;48.974;8.452;2022-08-19T10:09:39;7.90;;;5.40;;
34571;SDS011;20808;48.974;8.452;2022-08-19T10:12:06;7.23;;;6.10;;
34571;SDS011;20808;48.974;8.452;2022-08-19T10:14:36;7.10;;;6.30;;
34571;SDS011;20808;48.974;8.452;2022-08-19T10:17:04;6.43;;;5.77;;
34571;SDS011;20808;48.974;8.452;2022-08-19T10:19:30;6.93;;;5.87;;
34571;SDS011;20808;48.974;8.452;2022-08-19T10:22:02;8.33;;;6.37;;
34571;SDS011;20808;48.974;8.452;2022-08-19T10:24:30;12.47;;;7.17;;
34571;SDS011;20808;48.974;8.452;2022-08-19T10:26:58;9.30;;;6.47;;
34571;SDS011;20808;48.974;8.452;2022-08-19T10:29:25;8.88;;;6.40;;
34571;SDS011;20808;48.974;8.452;2022-08-19T10:31:54;8.55;;;6.15;;
34571;SDS011;20808;48.974;8.452;2022-08-19T10:34:22;6.77;;;6.13;;
34571;SDS011;20808;48.974;8.452;2022-08-19T10:36:49;6.75;;;6.00;;
34571;SDS011;20808;48.974;8.452;2022-08-19T10:39:16;7.53;;;6.60;;
34571;SDS011;20808;48.974;8.452;2022-08-19T10:41:43;7.20;;;6.50;;
34571;SDS011;20808;48.974;8.452;2022-08-19T10:44:11;7.03;;;5.72;;
34571;SDS011;20808;48.974;8.452;2022-08-19T10:46:39;5.82;;;5.32;;
34571;SDS011;20808;48.974;8.452;2022-08-19T10:49:09;6.82;;;6.13;;
34571;SDS011;20808;48.974;8.452;2022-08-19T10:51:37;7.72;;;5.57;;
34571;SDS011;20808;48.974;8.452;2022-08-19T10:54:21;6.38;;;5.78;;
34571;SDS011;20808;48.974;8.452;2022-08-19T10:56:48;8.07;;;5.68;;
34571;SDS011;20808;48.974;8.452;2022-08-19T10:59:17;6.75;;;5.60;;
34571;SDS011;20808;48.974;8.452;2022-08-19T11:01:47;5.90;;;5.35;;
34571;SDS011;20808;48.974;8.452;2022-08-19T11:04:16;10.57;;;6.32;;
34571;SDS011;20808;48.974;8.452;2022-08-19T11:06:43;31.70;;;7.78;;
34571;SDS011;20808;48.974;8.452;2022-08-19T11:09:12;30.13;;;7.97;;
34571;SDS011;20808;48.974;8.452;2022-08-19T11:11:40;11.10;;;6.57;;
34571;SDS011;20808;48.974;8.452;2022-08-19T11:14:07;9.43;;;6.47;;
34571;SDS011;20808;48.974;8.452;2022-08-19T11:16:35;7.78;;;6.07;;
34571;SDS011;20808;48.974;8.452;2022-08-19T11:19:03;6.50;;;5.90;;
34571;SDS011;20808;48.974;8.452;2022-08-19T11:21:32;9.23;;;6.30;;
34571;SDS011;20808;48.974;8.452;2022-08-19T11:24:01;8.97;;;7.03;;
34571;SDS011;20808;48.974;8.452;2022-08-19T11:26:30;9.80;;;7.10;;
34571;SDS011;20808;48.974;8.452;2022-08-19T11:28:58;8.47;;;7.60;;
34571;SDS011;20808;48.974;8.452;2022-08-19T11:31:26;10.07;;;7.03;;
34571;SDS011;20808;48.974;8.452;2022-08-19T11:33:55;8.10;;;7.30;;
34571;SDS011;20808;48.974;8.452;2022-08-19T11:36:22;9.70;;;6.93;;
34571;SDS011;20808;48.974;8.452;2022-08-19T11:38:51;8.30;;;7.50;;
34571;SDS011;20808;48.974;8.452;2022-08-19T11:41:19;6.60;;;6.10;;
34571;SDS011;20808;48.974;8.452;2022-08-19T11:43:48;7.35;;;6.35;;
34571;SDS011;20808;48.974;8.452;2022-08-19T11:46:16;7.65;;;6.63;;
34571;SDS011;20808;48.974;8.452;2022-08-19T11:48:43;8.90;;;7.50;;
34571;SDS011;20808;48.974;8.452;2022-08-19T11:51:10;7.50;;;6.80;;
34571;SDS011;20808;48.974;8.452;2022-08-19T11:53:39;7.40;;;6.70;;
34571;SDS011;20808;48.974;8.452;2022-08-19T11:56:08;10.17;;;7.00;;
34571;SDS011;20808;48.974;8.452;2022-08-19T11:58:35;7.47;;;6.77;;
34571;SDS011;20808;48.974;8.452;2022-08-19T12:01:04;7.93;;;6.80;;
34571;SDS011;20808;48.974;8.452;2022-08-19T12:03:32;7.25;;;6.55;;
34571;SDS011;20808;48.974;8.452;2022-08-19T12:06:02;8.00;;;7.25;;
34571;SDS011;20808;48.974;8.452;2022-08-19T12:08:30;6.80;;;6.15;;
34571;SDS011;20808;48.974;8.452;2022-08-19T12:10:57;7.55;;;6.85;;
34571;SDS011;20808;48.974;8.452;2022-08-19T12:13:27;7.90;;;6.70;;
34571;SDS011;20808;48.974;8.452;2022-08-19T12:15:55;7.50;;;6.80;;
34571;SDS011;20808;48.974;8.452;2022-08-19T12:18:23;6.70;;;5.88;;
34571;SDS011;20808;48.974;8.452;2022-08-19T12:20:51;7.32;;;6.47;;
34571;SDS011;20808;48.974;8.452;2022-08-19T12:23:19;7.05;;;6.38;;
34571;SDS011;20808;48.974;8.452;2022-08-19T12:25:47;6.22;;;5.70;;
34571;SDS011;20808;48.974;8.452;2022-08-19T12:28:17;7.43;;;6.70;;
34571;SDS011;20808;48.974;8.452;2022-08-19T12:30:46;6.90;;;6.23;;
34571;SDS011;20808;48.974;8.452;2022-08-19T12:33:13;7.20;;;6.50;;
34571;SDS011;20808;48.974;8.452;2022-08-19T12:35:40;9.83;;;7.23;;
34571;SDS011;20808;48.974;8.452;2022-08-19T12:38:09;7.20;;;6.50;;
34571;SDS011;20808;48.974;8.452;2022-08-19T12:40:35;7.23;;;6.53;;
34571;SDS011;20808;48.974;8.452;2022-08-19T12:43:05;8.10;;;7.20;;
34571;SDS011;20808;48.974;8.452;2022-08-19T12:45:32;8.10;;;6.90;;
34571;SDS011;20808;48.974;8.452;2022-08-19T12:48:00;7.70;;;6.90;;
34571;SDS011;20808;48.974;8.452;2022-08-19T12:50:28;9.70;;;6.30;;
34571;SDS011;20808;48.974;8.452;2022-08-19T12:52:55;7.73;;;6.93;;
34571;SDS011;20808;48.974;8.452;2022-08-19T12:55:23;8.47;;;7.40;;
34571;SDS011;20808;48.974;8.452;2022-08-19T12:57:53;7.63;;;6.93;;
34571;SDS011;20808;48.974;8.452;2022-08-19T13:00:21;8.07;;;7.20;;
34571;SDS011;20808;48.974;8.452;2022-08-19T13:02:49;7.40;;;6.57;;
34571;SDS011;20808;48.974;8.452;2022-08-19T13:05:19;7.43;;;6.67;;
34571;SDS011;20808;48.974;8.452;2022-08-19T13:07:47;9.23;;;7.30;;
34571;SDS011;20808;48.974;8.452;2022-08-19T13:10:16;8.30;;;6.50;;
34571;SDS011;20808;48.974;8.452;2022-08-19T13:12:45;7.00;;;5.83;;
34571;SDS011;20808;48.974;8.452;2022-08-19T13:15:13;7.03;;;5.77;;
34571;SDS011;20808;48.974;8.452;2022-08-19T13:17:44;6.45;;;5.82;;
34571;SDS011;20808;48.974;8.452;2022-08-19T13:20:12;5.97;;;5.47;;
34571;SDS011;20808;48.974;8.452;2022-08-19T13:22:40;5.75;;;5.25;;
34571;SDS011;20808;48.974;8.452;2022-08-19T13:25:07;6.72;;;5.65;;
34571;SDS011;20808;48.974;8.452;2022-08-19T13:27:35;5.82;;;5.32;;
34571;SDS011;20808;48.974;8.452;2022-08-19T13:30:03;8.63;;;5.40;;
34571;SDS011;20808;48.974;8.452;2022-08-19T13:32:49;6.18;;;5.55;;
34571;SDS011;20808;48.974;8.452;2022-08-19T13:35:33;7.47;;;5.40;;
34571;SDS011;20808;48.974;8.452;2022-08-19T13:38:01;5.60;;;5.10;;
34571;SDS011;20808;48.974;8.452;2022-08-19T13:40:29;5.40;;;4.90;;
34571;SDS011;20808;48.974;8.452;2022-08-19T13:42:59;5.35;;;4.88;;
34571;SDS011;20808;48.974;8.452;2022-08-19T13:45:27;4.70;;;4.30;;
34571;SDS011;20808;48.974;8.452;2022-08-19T13:47:58;4.80;;;4.33;;
34571;SDS011;20808;48.974;8.452;2022-08-19T13:50:26;5.13;;;4.63;;
34571;SDS011;20808;48.974;8.452;2022-08-19T13:52:56;5.07;;;4.68;;
34571;SDS011;20808;48.974;8.452;2022-08-19T13:55:24;5.57;;;5.00;;
34571;SDS011;20808;48.974;8.452;2022-08-19T13:57:52;8.27;;;4.93;;
34571;SDS011;20808;48.974;8.452;2022-08-19T14:00:21;4.88;;;4.43;;
34571;SDS011;20808;48.974;8.452;2022-08-19T14:02:52;4.00;;;3.70;;
34571;SDS011;20808;48.974;8.452;2022-08-19T14:05:21;6.55;;;3.85;;
34571;SDS011;20808;48.974;8.452;2022-08-19T14:07:48;3.38;;;3.10;;
34571;SDS011;20808;48.974;8.452;2022-08-19T14:10:15;3.90;;;3.58;;
34571;SDS011;20808;48.974;8.452;2022-08-19T14:12:45;3.92;;;3.63;;
34571;SDS011;20808;48.974;8.452;2022-08-19T14:15:12;3.45;;;3.15;;
34571;SDS011;20808;48.974;8.452;2022-08-19T14:17:40;4.13;;;3.78;;
34571;SDS011;20808;48.974;8.452;2022-08-19T14:20:09;4.30;;;3.90;;
34571;SDS011;20808;48.974;8.452;2022-08-19T14:22:38;5.53;;;4.15;;
34571;SDS011;20808;48.974;8.452;2022-08-19T14:25:07;4.15;;;3.85;;
34571;SDS011;20808;48.974;8.452;2022-08-19T14:27:36;5.05;;;3.90;;
34571;SDS011;20808;48.974;8.452;2022-08-19T14:30:06;4.20;;;3.80;;
34571;SDS011;20808;48.974;8.452;2022-08-19T14:32:34;4.37;;;3.93;;
34571;SDS011;20808;48.974;8.452;2022-08-19T14:35:02;4.33;;;3.90;;
34571;SDS011;20808;48.974;8.452;2022-08-19T14:37:29;4.60;;;4.20;;
34571;SDS011;20808;48.974;8.452;2022-08-19T14:39:56;5.20;;;4.70;;